createdAt,value
2022-09-27T00:01:54.638Z,46.40
2022-09-27T00:04:21.500Z,30.40
2022-09-27T00:06:48.494Z,46.90
2022-09-27T00:09:15.418Z,33.50
2022-09-27T00:11:43.006Z,27.27
2022-09-27T00:14:12.870Z,34.42
2022-09-27T00:16:41.194Z,43.25
2022-09-27T00:19:20.211Z,25.05
2022-09-27T00:21:47.274Z,41.40
2022-09-27T00:24:16.001Z,35.67
2022-09-27T00:26:43.409Z,27.05
2022-09-27T00:29:11.031Z,54.42
2022-09-27T00:31:38.533Z,43.45
2022-09-27T00:34:07.057Z,48.65
2022-09-27T00:36:34.734Z,39.55
2022-09-27T00:39:02.226Z,39.03
2022-09-27T00:41:32.450Z,41.33
2022-09-27T00:44:22.496Z,33.45
2022-09-27T00:47:11.553Z,40.60
2022-09-27T00:49:42.898Z,37.42
2022-09-27T00:54:47.185Z,50.72
2022-09-27T00:57:14.034Z,34.00
2022-09-27T00:59:48.096Z,33.47
2022-09-27T01:02:15.344Z,32.78
2022-09-27T01:04:43.818Z,34.45
2022-09-27T01:07:10.820Z,48.47
2022-09-27T01:09:38.185Z,41.42
2022-09-27T01:12:46.439Z,48.80
2022-09-27T01:16:07.379Z,35.20
2022-09-27T01:19:09.275Z,35.53
2022-09-27T01:24:25.120Z,37.25
2022-09-27T01:27:16.537Z,32.05
2022-09-27T01:30:21.783Z,41.60
2022-09-27T01:33:07.669Z,33.40
2022-09-27T01:35:45.924Z,41.03
2022-09-27T01:38:34.372Z,35.40
2022-09-27T01:41:12.888Z,31.48
2022-09-27T01:43:53.706Z,42.55
2022-09-27T01:46:28.405Z,50.28
2022-09-27T01:48:59.125Z,44.17
2022-09-27T01:51:35.742Z,50.80
2022-09-27T01:54:05.656Z,40.30
2022-09-27T01:56:49.150Z,41.55
2022-09-27T01:59:22.691Z,38.05
2022-09-27T02:01:52.560Z,41.03
2022-09-27T02:04:26.974Z,37.33
2022-09-27T02:07:01.143Z,36.83
2022-09-27T02:09:33.608Z,46.10
2022-09-27T02:12:06.391Z,46.30
2022-09-27T02:14:41.739Z,37.30
2022-09-27T02:17:20.814Z,39.88
2022-09-27T02:19:50.482Z,45.88
2022-09-27T02:22:22.282Z,32.78
2022-09-27T02:24:55.367Z,57.60
2022-09-27T02:27:30.312Z,44.80
2022-09-27T02:30:13.069Z,33.42
2022-09-27T02:32:40.884Z,33.47
2022-09-27T02:35:14.126Z,34.00
2022-09-27T02:37:41.286Z,23.42
2022-09-27T02:40:08.630Z,36.35
2022-09-27T02:42:35.726Z,27.10
2022-09-27T02:45:05.745Z,27.52
2022-09-27T02:47:51.020Z,18.70
2022-09-27T02:50:18.680Z,30.45
2022-09-27T02:53:13.535Z,27.85
2022-09-27T02:56:04.292Z,34.92
2022-09-27T02:58:43.326Z,33.20
2022-09-27T03:01:39.424Z,20.38
2022-09-27T03:04:17.653Z,28.27
2022-09-27T03:06:47.522Z,27.00
2022-09-27T03:09:22.515Z,19.48
2022-09-27T03:11:49.647Z,21.67
2022-09-27T03:14:17.059Z,19.95
2022-09-27T03:16:44.001Z,28.88
2022-09-27T03:19:11.061Z,24.10
2022-09-27T03:21:38.095Z,28.10
2022-09-27T03:24:05.254Z,24.55
2022-09-27T03:26:32.143Z,28.83
2022-09-27T03:28:59.135Z,22.60
2022-09-27T03:31:26.126Z,21.73
2022-09-27T03:33:53.028Z,16.77
2022-09-27T03:36:19.864Z,20.70
2022-09-27T03:38:46.765Z,22.85
2022-09-27T03:41:13.662Z,23.35
2022-09-27T03:43:40.543Z,20.33
2022-09-27T03:46:07.561Z,23.65
2022-09-27T03:48:34.701Z,25.17
2022-09-27T03:51:01.739Z,23.73
2022-09-27T03:53:28.682Z,23.10
2022-09-27T03:55:56.139Z,21.27
2022-09-27T03:58:22.984Z,24.05
2022-09-27T04:00:49.774Z,17.52
2022-09-27T04:03:17.807Z,18.20
2022-09-27T04:05:44.699Z,21.65
2022-09-27T04:08:12.154Z,22.00
2022-09-27T04:10:39.092Z,22.55
2022-09-27T04:13:06.252Z,22.92
2022-09-27T04:15:33.183Z,20.50
2022-09-27T04:18:00.130Z,14.32
2022-09-27T04:20:27.004Z,21.20
2022-09-27T04:22:53.815Z,16.33
2022-09-27T04:25:20.677Z,18.58
2022-09-27T04:27:48.480Z,18.17
2022-09-27T04:30:15.958Z,26.17
2022-09-27T04:32:44.316Z,22.42
2022-09-27T04:35:31.121Z,19.85
2022-09-27T04:37:58.285Z,19.50
2022-09-27T04:40:25.361Z,15.35
2022-09-27T04:42:52.935Z,21.92
2022-09-27T04:45:20.602Z,17.20
2022-09-27T04:47:49.838Z,26.77
2022-09-27T04:50:17.910Z,18.88
2022-09-27T04:52:44.957Z,16.27
2022-09-27T04:55:11.852Z,16.15
2022-09-27T04:57:38.760Z,21.15
2022-09-27T05:00:06.318Z,15.82
2022-09-27T05:02:33.240Z,22.15
2022-09-27T05:05:00.816Z,17.98
2022-09-27T05:07:28.833Z,22.48
2022-09-27T05:09:56.902Z,16.73
2022-09-27T05:12:27.082Z,16.88
2022-09-27T05:14:54.590Z,17.52
2022-09-27T05:17:22.547Z,14.25
2022-09-27T05:19:50.411Z,17.38
2022-09-27T05:22:17.876Z,14.05
2022-09-27T05:24:44.873Z,14.98
2022-09-27T05:27:17.136Z,20.92
2022-09-27T05:29:44.750Z,14.25
2022-09-27T05:32:11.759Z,7.47
2022-09-27T05:34:38.947Z,8.05
2022-09-27T05:37:05.993Z,10.75
2022-09-27T05:39:32.937Z,10.38
2022-09-27T05:41:59.875Z,6.53
2022-09-27T05:44:26.774Z,11.60
2022-09-27T05:46:53.722Z,9.93
2022-09-27T05:49:20.833Z,10.02
2022-09-27T05:51:47.815Z,11.52
2022-09-27T05:54:14.913Z,12.68
2022-09-27T05:56:41.910Z,11.55
2022-09-27T05:59:08.969Z,14.25
2022-09-27T06:01:36.079Z,9.68
2022-09-27T06:04:05.973Z,15.27
2022-09-27T06:06:36.047Z,9.40
2022-09-27T06:09:03.093Z,11.57
2022-09-27T06:11:30.092Z,12.80
2022-09-27T06:13:57.758Z,14.38
2022-09-27T06:16:24.742Z,9.50
2022-09-27T06:18:52.467Z,11.20
2022-09-27T06:21:19.518Z,12.15
2022-09-27T06:23:50.677Z,11.65
2022-09-27T06:26:22.250Z,11.63
2022-09-27T06:28:49.501Z,11.02
2022-09-27T06:31:16.674Z,17.73
2022-09-27T06:33:43.645Z,15.57
2022-09-27T06:36:10.655Z,8.40
2022-09-27T06:38:38.467Z,19.80
2022-09-27T06:41:13.595Z,10.05
2022-09-27T06:43:40.337Z,19.70
2022-09-27T06:46:07.339Z,12.88
2022-09-27T06:48:37.859Z,14.82
2022-09-27T06:51:05.481Z,18.57
2022-09-27T06:53:32.321Z,14.85
2022-09-27T06:56:03.068Z,8.80
2022-09-27T06:58:48.484Z,14.85
2022-09-27T07:01:15.831Z,8.98
2022-09-27T07:03:43.402Z,13.70
2022-09-27T07:06:20.587Z,12.73
2022-09-27T07:08:52.332Z,14.40
2022-09-27T07:11:20.149Z,13.38
2022-09-27T07:13:46.951Z,11.55
2022-09-27T07:16:16.788Z,16.20
2022-09-27T07:18:43.952Z,14.85
2022-09-27T07:21:12.750Z,17.77
2022-09-27T07:23:39.897Z,13.60
2022-09-27T07:26:08.585Z,10.73
2022-09-27T07:28:35.530Z,10.68
2022-09-27T07:31:03.689Z,9.88
2022-09-27T07:33:32.229Z,15.15
2022-09-27T07:35:59.121Z,14.40
2022-09-27T07:38:26.023Z,12.38
2022-09-27T07:40:53.265Z,10.98
2022-09-27T07:43:20.846Z,9.88
2022-09-27T07:45:47.898Z,14.00
2022-09-27T07:48:16.621Z,8.32
2022-09-27T07:50:44.235Z,16.50
2022-09-27T07:53:13.590Z,14.90
2022-09-27T07:55:41.092Z,8.80
2022-09-27T07:58:10.907Z,7.75
2022-09-27T08:00:41.099Z,9.35
2022-09-27T08:03:10.878Z,9.90
2022-09-27T08:05:38.031Z,11.25
2022-09-27T08:08:05.639Z,7.97
2022-09-27T08:10:33.913Z,10.65
2022-09-27T08:13:05.109Z,13.05
2022-09-27T08:15:33.136Z,9.60
2022-09-27T08:17:59.973Z,12.65
2022-09-27T08:20:26.824Z,7.45
2022-09-27T08:22:54.080Z,8.13
2022-09-27T08:25:24.560Z,9.50
2022-09-27T08:27:58.990Z,8.33
2022-09-27T08:30:27.001Z,16.27
2022-09-27T08:32:57.767Z,11.48
2022-09-27T08:35:24.917Z,10.50
2022-09-27T08:38:00.076Z,12.13
2022-09-27T08:40:59.497Z,8.75
2022-09-27T08:43:34.655Z,10.43
2022-09-27T08:46:31.189Z,9.77
2022-09-27T08:49:11.187Z,8.60
2022-09-27T08:51:40.080Z,7.78
2022-09-27T08:54:30.301Z,9.60
2022-09-27T08:57:07.505Z,6.25
2022-09-27T08:59:47.351Z,7.32
2022-09-27T09:02:19.427Z,9.05
2022-09-27T09:04:49.497Z,15.40
2022-09-27T09:07:46.485Z,12.13
2022-09-27T09:10:39.543Z,9.00
2022-09-27T09:13:39.160Z,15.38
2022-09-27T09:16:33.632Z,8.13
2022-09-27T09:19:58.599Z,6.93
2022-09-27T09:22:40.969Z,14.00
2022-09-27T09:25:35.549Z,12.43
2022-09-27T09:28:25.226Z,12.77
2022-09-27T09:31:06.961Z,8.13
2022-09-27T09:33:44.617Z,9.43
2022-09-27T09:36:44.537Z,9.68
2022-09-27T09:39:14.085Z,13.68
2022-09-27T09:42:19.849Z,7.53
2022-09-27T09:44:55.851Z,13.60
2022-09-27T09:47:43.778Z,11.15
2022-09-27T09:50:22.304Z,8.90
2022-09-27T09:52:54.682Z,11.93
2022-09-27T09:55:28.945Z,8.25
2022-09-27T09:57:58.755Z,11.20
2022-09-27T10:00:25.759Z,9.40
2022-09-27T10:02:55.624Z,6.68
2022-09-27T10:05:24.723Z,9.55
2022-09-27T10:07:54.524Z,6.80
2022-09-27T10:10:22.285Z,7.57
2022-09-27T10:12:50.213Z,12.50
2022-09-27T10:15:26.166Z,6.88
2022-09-27T10:17:56.605Z,8.52
2022-09-27T10:20:32.960Z,8.48
2022-09-27T10:23:14.399Z,8.10
2022-09-27T10:28:48.368Z,6.43
2022-09-27T10:31:19.670Z,12.40
2022-09-27T10:36:31.080Z,8.05
2022-09-27T10:39:04.926Z,8.15
2022-09-27T10:41:32.899Z,6.18
2022-09-27T10:44:18.388Z,6.93
2022-09-27T10:46:49.567Z,12.90
2022-09-27T10:49:19.837Z,6.55
2022-09-27T10:51:51.705Z,7.30
2022-09-27T10:54:37.599Z,4.85
2022-09-27T10:57:20.507Z,9.50
2022-09-27T10:59:56.314Z,7.35
2022-09-27T11:02:40.111Z,6.30
2022-09-27T11:05:15.337Z,4.00
2022-09-27T11:07:52.986Z,0.85
2022-09-27T11:10:39.640Z,1.83
2022-09-27T11:13:14.726Z,4.07
2022-09-27T11:15:53.523Z,2.72
2022-09-27T11:18:26.282Z,4.40
2022-09-27T11:21:10.035Z,4.30
2022-09-27T11:24:09.461Z,1.10
2022-09-27T11:26:51.735Z,1.63
2022-09-27T11:29:56.165Z,2.38
2022-09-27T11:32:25.734Z,1.52
2022-09-27T11:35:14.262Z,0.80
2022-09-27T11:38:06.296Z,1.45
2022-09-27T11:40:52.083Z,1.08
2022-09-27T11:43:55.436Z,0.43
2022-09-27T11:46:42.184Z,0.57
2022-09-27T11:49:28.335Z,0.10
2022-09-27T11:52:28.104Z,0.45
2022-09-27T11:55:16.199Z,0.77
2022-09-27T11:58:08.589Z,3.08
2022-09-27T12:00:49.300Z,2.40
2022-09-27T12:03:37.597Z,2.67
2022-09-27T12:06:13.505Z,2.75
2022-09-27T12:08:51.556Z,3.15
2022-09-27T12:11:33.044Z,4.63
2022-09-27T12:16:32.313Z,5.97
2022-09-27T12:19:02.172Z,11.60
2022-09-27T12:21:33.166Z,4.15
2022-09-27T12:24:02.006Z,3.17
2022-09-27T12:26:36.787Z,4.18
2022-09-27T12:29:22.426Z,4.68
2022-09-27T12:32:26.379Z,4.32
2022-09-27T12:35:31.009Z,9.68
2022-09-27T12:38:23.398Z,2.35
2022-09-27T12:40:55.763Z,0.68
2022-09-27T12:43:32.246Z,0.95
2022-09-27T12:46:32.260Z,1.67
2022-09-27T12:49:42.568Z,0.85
2022-09-27T12:52:23.294Z,0.88
2022-09-27T12:55:11.630Z,0.63
2022-09-27T12:57:41.300Z,2.05
2022-09-27T13:00:24.405Z,1.05
2022-09-27T13:03:36.264Z,3.45
2022-09-27T13:09:40.610Z,3.33
2022-09-27T13:15:07.788Z,1.98
2022-09-27T13:17:48.951Z,0.28
2022-09-27T13:20:34.327Z,0.20
2022-09-27T13:23:24.989Z,2.85
2022-09-27T13:26:00.373Z,0.30
2022-09-27T13:28:31.855Z,3.45
2022-09-27T13:31:00.096Z,0.40
2022-09-27T13:33:34.931Z,1.65
2022-09-27T13:36:07.908Z,0.30
2022-09-27T13:38:35.023Z,0.70
2022-09-27T13:41:20.033Z,0.50
2022-09-27T13:44:08.647Z,1.05
2022-09-27T13:46:37.184Z,2.15
2022-09-27T13:49:17.242Z,3.22
2022-09-27T13:51:50.363Z,1.25
2022-09-27T13:54:40.404Z,0.68
2022-09-27T13:57:45.957Z,0.70
2022-09-27T14:00:22.993Z,1.05
2022-09-27T14:03:17.529Z,0.40
2022-09-27T14:05:58.529Z,0.50
2022-09-27T14:08:44.433Z,1.25
2022-09-27T14:11:14.051Z,6.55
2022-09-27T14:13:42.983Z,3.30
2022-09-27T14:16:16.234Z,6.15
2022-09-27T14:18:57.815Z,9.13
2022-09-27T14:21:30.339Z,3.70
2022-09-27T14:24:21.606Z,3.08
2022-09-27T14:26:50.035Z,2.25
2022-09-27T14:29:22.767Z,1.60
2022-09-27T14:32:16.490Z,2.25
2022-09-27T14:34:43.490Z,2.42
2022-09-27T14:37:24.228Z,3.90
2022-09-27T14:39:57.397Z,1.48
2022-09-27T14:42:27.364Z,0.68
2022-09-27T14:45:00.209Z,1.17
2022-09-27T14:47:28.517Z,2.38
2022-09-27T14:49:57.403Z,0.32
2022-09-27T14:52:32.190Z,0.50
2022-09-27T14:55:13.983Z,3.10
2022-09-27T14:57:52.859Z,0.90
2022-09-27T15:00:26.417Z,0.20
2022-09-27T15:02:55.669Z,0.55
2022-09-27T15:05:28.342Z,0.25
2022-09-27T15:07:59.095Z,1.35
2022-09-27T15:10:31.595Z,3.90
2022-09-27T15:13:01.690Z,0.95
2022-09-27T15:15:36.762Z,0.25
2022-09-27T15:18:04.778Z,0.10
2022-09-27T15:20:35.464Z,1.33
2022-09-27T15:23:05.989Z,2.85
2022-09-27T15:25:44.100Z,0.30
2022-09-27T15:28:19.946Z,0.63
2022-09-27T15:30:57.655Z,4.32
2022-09-27T15:33:32.059Z,1.25
2022-09-27T15:36:15.910Z,4.07
2022-09-27T15:38:49.102Z,0.43
2022-09-27T15:41:23.018Z,1.13
2022-09-27T15:43:52.769Z,0.68
2022-09-27T15:46:22.929Z,0.95
2022-09-27T15:49:18.048Z,0.77
2022-09-27T15:51:46.827Z,0.47
2022-09-27T15:54:13.674Z,4.00
2022-09-27T15:56:40.664Z,2.70
2022-09-27T15:59:23.186Z,6.05
2022-09-27T16:01:52.873Z,5.15
2022-09-27T16:04:19.783Z,4.57
2022-09-27T16:06:46.723Z,1.08
2022-09-27T16:09:21.308Z,2.00
2022-09-27T16:11:49.880Z,2.28
2022-09-27T16:14:18.823Z,1.90
2022-09-27T16:17:03.993Z,0.38
2022-09-27T16:19:30.937Z,0.93
2022-09-27T16:21:57.848Z,2.08
2022-09-27T16:24:25.681Z,3.95
2022-09-27T16:26:52.594Z,1.73
2022-09-27T16:29:19.411Z,0.68
2022-09-27T16:31:46.773Z,0.35
2022-09-27T16:34:14.088Z,1.63
2022-09-27T16:36:41.347Z,0.55
2022-09-27T16:39:12.952Z,0.77
2022-09-27T16:41:43.753Z,0.88
2022-09-27T16:44:13.403Z,1.08
2022-09-27T16:46:41.777Z,1.23
2022-09-27T16:49:29.102Z,1.20
2022-09-27T16:52:02.317Z,2.42
2022-09-27T16:54:29.900Z,4.22
2022-09-27T16:56:58.486Z,3.20
2022-09-27T16:59:25.734Z,5.15
2022-09-27T17:01:57.376Z,2.00
2022-09-27T17:04:28.471Z,3.35
2022-09-27T17:06:56.090Z,3.60
2022-09-27T17:09:23.296Z,5.00
2022-09-27T17:11:51.166Z,4.65
2022-09-27T17:14:18.409Z,4.78
2022-09-27T17:16:47.421Z,5.53
2022-09-27T17:19:15.213Z,2.75
2022-09-27T17:21:42.675Z,3.60
2022-09-27T17:24:10.083Z,1.50
2022-09-27T17:26:37.591Z,1.55
2022-09-27T17:29:04.752Z,2.40
2022-09-27T17:31:34.863Z,2.00
2022-09-27T17:34:03.041Z,1.25
2022-09-27T17:36:37.656Z,1.70
2022-09-27T17:39:05.319Z,1.95
2022-09-27T17:41:39.591Z,2.30
2022-09-27T17:44:07.658Z,2.53
2022-09-27T17:46:36.958Z,3.00
2022-09-27T17:49:22.856Z,2.67
2022-09-27T17:51:52.259Z,1.13
2022-09-27T17:54:21.915Z,1.10
2022-09-27T17:56:49.582Z,0.80
2022-09-27T17:59:17.850Z,1.35
2022-09-27T18:01:46.127Z,2.92
2022-09-27T18:04:15.945Z,1.23
2022-09-27T18:06:46.385Z,4.35
2022-09-27T18:09:16.547Z,0.70
2022-09-27T18:11:45.117Z,2.75
2022-09-27T18:14:12.562Z,2.75
2022-09-27T18:16:45.909Z,3.78
2022-09-27T18:19:15.377Z,4.68
2022-09-27T18:21:42.583Z,3.40
2022-09-27T18:24:11.031Z,2.35
2022-09-27T18:26:39.241Z,3.97
2022-09-27T18:29:14.810Z,2.55
2022-09-27T18:31:47.973Z,5.53
2022-09-27T18:34:16.928Z,1.83
2022-09-27T18:36:44.863Z,1.40
2022-09-27T18:39:16.066Z,3.95
2022-09-27T18:41:43.271Z,1.95
2022-09-27T18:44:12.681Z,1.60
2022-09-27T18:46:39.753Z,1.55
2022-09-27T18:49:10.743Z,0.90
2022-09-27T18:51:42.111Z,0.90
2022-09-27T18:54:16.216Z,2.10
2022-09-27T18:56:43.219Z,2.75
2022-09-27T18:59:11.051Z,4.13
2022-09-27T19:01:40.173Z,3.65
2022-09-27T19:04:08.563Z,2.47
2022-09-27T19:06:36.833Z,3.47
2022-09-27T19:09:04.914Z,2.83
2022-09-27T19:11:34.121Z,2.00
2022-09-27T19:14:01.879Z,1.80
2022-09-27T19:16:29.864Z,3.97
2022-09-27T19:18:57.090Z,2.28
2022-09-27T19:21:27.161Z,3.85
2022-09-27T19:23:54.773Z,4.38
2022-09-27T19:26:24.479Z,2.75
2022-09-27T19:28:51.846Z,6.80
2022-09-27T19:31:24.698Z,4.00
2022-09-27T19:33:57.479Z,3.10
2022-09-27T19:36:27.208Z,2.72
2022-09-27T19:38:54.058Z,3.72
2022-09-27T19:41:20.999Z,3.40
2022-09-27T19:43:52.511Z,3.80
2022-09-27T19:46:20.941Z,1.98
2022-09-27T19:48:49.669Z,5.22
2022-09-27T19:51:22.657Z,5.82
2022-09-27T19:53:50.418Z,5.80
2022-09-27T19:56:18.141Z,3.92
2022-09-27T19:58:45.739Z,6.20
2022-09-27T20:01:16.014Z,7.18
2022-09-27T20:03:44.385Z,7.72
2022-09-27T20:06:13.642Z,9.35
2022-09-27T20:08:40.842Z,10.07
2022-09-27T20:11:13.533Z,4.43
2022-09-27T20:13:41.395Z,5.90
2022-09-27T20:16:14.286Z,2.47
2022-09-27T20:18:44.092Z,4.25
2022-09-27T20:21:11.756Z,2.45
2022-09-27T20:23:39.054Z,2.67
2022-09-27T20:26:11.778Z,3.65
2022-09-27T20:28:43.090Z,7.07
2022-09-27T20:31:11.714Z,4.68
2022-09-27T20:33:41.677Z,4.00
2022-09-27T20:36:15.893Z,5.53
2022-09-27T20:38:45.361Z,4.78
2022-09-27T20:41:14.593Z,3.80
2022-09-27T20:43:41.489Z,4.60
2022-09-27T20:46:13.530Z,2.70
2022-09-27T20:48:41.175Z,11.25
2022-09-27T20:51:08.669Z,8.55
2022-09-27T20:53:35.719Z,7.50
2022-09-27T20:56:03.180Z,6.63
2022-09-27T20:58:32.735Z,7.50
2022-09-27T21:01:07.032Z,5.75
2022-09-27T21:03:34.764Z,7.45
2022-09-27T21:06:02.577Z,8.27
2022-09-27T21:08:31.483Z,8.55
2022-09-27T21:11:08.969Z,7.57
2022-09-27T21:13:38.829Z,4.93
2022-09-27T21:16:08.508Z,9.57
2022-09-27T21:18:36.865Z,6.95
2022-09-27T21:21:08.929Z,6.32
2022-09-27T21:23:40.794Z,10.65
2022-09-27T21:26:18.587Z,7.25
2022-09-27T21:28:52.034Z,10.43
2022-09-27T21:31:23.216Z,12.20
2022-09-27T21:36:22.762Z,8.25
2022-09-27T21:38:49.703Z,9.48
2022-09-27T21:41:17.259Z,5.90
2022-09-27T21:43:45.892Z,8.40
2022-09-27T21:46:15.894Z,6.90
2022-09-27T21:48:46.436Z,11.18
2022-09-27T21:51:17.118Z,13.07
2022-09-27T21:53:50.565Z,11.90
2022-09-27T21:56:18.698Z,13.82
2022-09-27T21:58:45.902Z,7.38
2022-09-27T22:01:21.431Z,12.63
2022-09-27T22:03:49.765Z,6.55
2022-09-27T22:06:19.831Z,7.85
2022-09-27T22:08:48.014Z,6.63
2022-09-27T22:11:17.098Z,11.07
2022-09-27T22:13:44.042Z,12.43
2022-09-27T22:16:16.662Z,8.90
2022-09-27T22:18:45.224Z,10.20
2022-09-27T22:21:15.428Z,16.40
2022-09-27T22:23:43.190Z,8.15
2022-09-27T22:26:13.235Z,11.13
2022-09-27T22:28:40.511Z,8.70
2022-09-27T22:31:08.799Z,9.80
2022-09-27T22:33:35.801Z,13.20
2022-09-27T22:36:02.888Z,11.88
2022-09-27T22:38:31.123Z,8.75
2022-09-27T22:41:01.405Z,9.43
2022-09-27T22:43:32.216Z,5.88
2022-09-27T22:46:02.315Z,10.40
2022-09-27T22:48:30.919Z,9.27
2022-09-27T22:50:59.090Z,7.75
2022-09-27T22:53:27.937Z,8.00
2022-09-27T22:56:09.421Z,12.65
2022-09-27T23:01:09.022Z,9.05
2022-09-27T23:03:36.176Z,6.28
